createdAt,value
2023-03-01T00:00:59.779Z,50.866772
2023-03-01T00:01:59.815Z,50.866833
2023-03-01T00:02:59.777Z,50.866936
2023-03-01T00:03:59.758Z,50.866943
2023-03-01T00:04:59.749Z,50.866798
2023-03-01T00:05:59.765Z,50.866589
2023-03-01T00:06:59.797Z,50.866268
2023-03-01T00:07:59.738Z,50.866093
2023-03-01T00:08:59.717Z,50.865978
2023-03-01T00:09:59.709Z,50.866356
2023-03-01T00:10:59.730Z,50.866215
2023-03-01T00:11:59.704Z,50.866196
2023-03-01T00:12:59.698Z,50.866356
2023-03-01T00:13:59.679Z,50.866665
2023-03-01T00:14:59.683Z,50.866749
2023-03-01T00:15:59.663Z,50.866741
2023-03-01T00:16:59.721Z,50.866688
2023-03-01T00:17:59.654Z,50.866714
2023-03-01T00:18:59.662Z,50.866756
2023-03-01T00:19:59.656Z,50.866680
2023-03-01T00:20:59.624Z,50.866695
2023-03-01T00:21:59.621Z,50.866669
2023-03-01T00:22:59.614Z,50.866741
2023-03-01T00:37:49.716Z,50.866562
2023-03-01T00:38:49.698Z,50.866642
2023-03-01T00:39:49.704Z,50.866528
2023-03-01T00:40:49.683Z,50.866604
2023-03-01T00:41:49.673Z,50.866600
2023-03-01T00:42:49.680Z,50.866657
2023-03-01T00:43:49.661Z,50.866600
2023-03-01T00:44:49.649Z,50.866566
2023-03-01T00:45:49.670Z,50.866535
2023-03-01T00:46:49.641Z,50.866592
2023-03-01T00:47:49.657Z,50.866653
2023-03-01T00:48:49.618Z,50.866619
2023-03-01T00:49:49.618Z,50.866543
2023-03-01T00:50:49.613Z,50.866558
2023-03-01T00:51:49.606Z,50.866524
2023-03-01T00:52:49.594Z,50.866528
2023-03-01T00:53:49.581Z,50.866497
2023-03-01T00:54:49.608Z,50.866554
2023-03-01T00:55:49.578Z,50.866570
2023-03-01T00:56:49.560Z,50.866550
2023-03-01T00:57:49.562Z,50.866554
2023-03-01T00:58:49.551Z,50.866562
2023-03-01T00:59:49.532Z,50.866543
2023-03-01T01:00:49.528Z,50.866596
2023-03-01T01:01:49.556Z,50.866600
2023-03-01T01:02:49.717Z,50.866657
2023-03-01T01:03:49.500Z,50.866669
2023-03-01T01:04:49.491Z,50.866772
2023-03-01T01:05:49.480Z,50.866730
2023-03-01T01:06:49.482Z,50.866650
2023-03-01T01:07:49.481Z,50.866638
2023-03-01T01:08:49.485Z,50.866631
2023-03-01T01:09:50.366Z,50.866627
2023-03-01T01:10:49.446Z,50.866596
2023-03-01T01:11:49.450Z,50.866627
2023-03-01T01:12:49.426Z,50.866596
2023-03-01T01:13:49.424Z,50.866661
2023-03-01T01:14:49.413Z,50.866634
2023-03-01T01:15:49.434Z,50.866615
2023-03-01T01:16:49.389Z,50.866634
2023-03-01T01:17:49.400Z,50.866611
2023-03-01T01:18:49.382Z,50.866600
2023-03-01T01:19:49.371Z,50.866604
2023-03-01T01:20:49.360Z,50.866596
2023-03-01T01:21:49.418Z,50.866615
2023-03-01T01:22:49.357Z,50.866634
2023-03-01T01:23:49.346Z,50.866615
2023-03-01T01:24:49.331Z,50.866642
2023-03-01T01:25:49.322Z,50.866661
2023-03-01T01:26:49.316Z,50.866665
2023-03-01T01:27:49.312Z,50.866684
2023-03-01T01:28:49.303Z,50.866695
2023-03-01T01:29:49.293Z,50.866714
2023-03-01T01:30:49.291Z,50.866661
2023-03-01T01:31:49.300Z,50.866661
2023-03-01T01:32:49.273Z,50.866673
2023-03-01T01:33:49.258Z,50.866695
2023-03-01T01:34:49.255Z,50.866695
2023-03-01T01:35:49.311Z,50.866722
2023-03-01T01:36:49.243Z,50.866722
2023-03-01T01:37:49.232Z,50.866703
2023-03-01T01:38:49.227Z,50.866680
2023-03-01T01:39:49.216Z,50.866726
2023-03-01T01:40:49.215Z,50.866680
2023-03-01T01:41:49.216Z,50.866726
2023-03-01T01:42:49.190Z,50.866695
2023-03-01T01:43:49.183Z,50.866707
2023-03-01T01:44:49.190Z,50.866703
2023-03-01T01:45:49.164Z,50.866699
2023-03-01T01:46:49.234Z,50.866722
2023-03-01T01:47:49.155Z,50.866768
2023-03-01T01:48:49.139Z,50.866779
2023-03-01T01:49:49.131Z,50.866760
2023-03-01T01:50:49.121Z,50.866756
2023-03-01T01:51:49.137Z,50.866745
2023-03-01T01:52:49.119Z,50.866772
2023-03-01T01:53:49.106Z,50.866772
2023-03-01T01:54:49.090Z,50.866768
2023-03-01T01:55:49.081Z,50.866749
2023-03-01T01:56:49.076Z,50.866756
2023-03-01T01:57:49.064Z,50.866745
2023-03-01T01:58:49.059Z,50.866745
2023-03-01T01:59:49.045Z,50.866753
2023-03-01T02:00:49.059Z,50.866768
2023-03-01T02:01:49.030Z,50.866753
2023-03-01T02:02:49.054Z,50.866734
2023-03-01T02:03:49.069Z,50.866730
2023-03-01T02:04:49.011Z,50.866737
2023-03-01T02:05:54.942Z,50.866737
2023-03-01T02:06:51.950Z,50.866753
2023-03-01T02:07:48.993Z,50.866756
2023-03-01T02:08:48.982Z,50.866745
2023-03-01T02:09:48.984Z,50.866741
2023-03-01T02:10:48.964Z,50.866737
2023-03-01T02:11:48.974Z,50.866734
2023-03-01T02:12:48.949Z,50.866737
2023-03-01T02:13:48.945Z,50.866760
2023-03-01T02:14:48.930Z,50.866722
2023-03-01T02:15:48.955Z,50.866749
2023-03-01T02:16:48.948Z,50.866714
2023-03-01T02:17:48.911Z,50.866756
2023-03-01T02:18:48.903Z,50.866749
2023-03-01T02:19:50.445Z,50.866711
2023-03-01T02:20:48.895Z,50.866711
2023-03-01T02:21:48.886Z,50.866722
2023-03-01T02:22:48.879Z,50.866726
2023-03-01T02:23:48.871Z,50.866745
2023-03-01T02:24:48.857Z,50.866741
2023-03-01T02:25:48.851Z,50.866730
2023-03-01T02:26:48.841Z,50.866753
2023-03-01T02:27:48.836Z,50.866741
2023-03-01T02:28:49.375Z,50.866787
2023-03-01T02:29:52.455Z,50.866783
2023-03-01T02:30:48.820Z,50.866856
2023-03-01T02:31:48.890Z,50.866756
2023-03-01T02:32:48.803Z,50.866753
2023-03-01T02:33:48.788Z,50.866756
2023-03-01T02:34:48.790Z,50.866776
2023-03-01T02:35:48.799Z,50.866798
2023-03-01T02:36:48.767Z,50.866760
2023-03-01T02:37:48.760Z,50.866795
2023-03-01T02:38:48.761Z,50.866764
2023-03-01T02:39:48.747Z,50.866749
2023-03-01T02:40:49.769Z,50.866753
2023-03-01T02:41:48.760Z,50.866737
2023-03-01T02:42:48.725Z,50.866722
2023-03-01T02:43:48.725Z,50.866787
2023-03-01T02:44:48.713Z,50.866783
2023-03-01T02:45:48.709Z,50.866760
2023-03-01T02:46:48.844Z,50.866760
2023-03-01T02:47:48.689Z,50.866760
2023-03-01T02:48:48.684Z,50.866703
2023-03-01T02:49:48.683Z,50.866772
2023-03-01T02:50:48.673Z,50.866646
2023-03-01T02:51:48.684Z,50.866680
2023-03-01T02:52:48.656Z,50.866745
2023-03-01T02:53:49.455Z,50.866802
2023-03-01T02:54:48.644Z,50.866817
2023-03-01T02:55:48.636Z,50.866840
2023-03-01T02:56:48.627Z,50.866829
2023-03-01T02:57:48.609Z,50.866829
2023-03-01T02:58:48.611Z,50.866890
2023-03-01T02:59:48.601Z,50.866955
2023-03-01T03:00:49.607Z,50.867085
2023-03-01T03:01:48.582Z,50.867104
2023-03-01T03:02:48.570Z,50.867092
2023-03-01T03:03:48.608Z,50.867168
2023-03-01T03:04:48.560Z,50.866978
2023-03-01T03:05:48.573Z,50.866928
2023-03-01T03:06:48.548Z,50.866947
2023-03-01T03:07:48.532Z,50.866940
2023-03-01T03:08:48.533Z,50.866894
2023-03-01T03:09:48.524Z,50.866833
2023-03-01T03:10:48.517Z,50.866856
2023-03-01T03:11:48.511Z,50.866844
2023-03-01T03:12:48.506Z,50.866844
2023-03-01T03:13:48.488Z,50.867043
2023-03-01T03:14:48.480Z,50.867077
2023-03-01T03:15:48.480Z,50.867008
2023-03-01T03:16:48.465Z,50.866943
2023-03-01T03:17:48.454Z,50.866894
2023-03-01T03:18:48.453Z,50.866966
2023-03-01T03:19:48.464Z,50.866974
2023-03-01T03:20:48.445Z,50.866913
2023-03-01T03:21:48.433Z,50.866936
2023-03-01T03:22:48.420Z,50.866901
2023-03-01T03:23:48.412Z,50.866898
2023-03-01T03:24:51.379Z,50.866894
2023-03-01T03:25:53.986Z,50.866806
2023-03-01T03:26:48.387Z,50.866749
2023-03-01T03:27:48.388Z,50.866829
2023-03-01T03:28:48.377Z,50.866852
2023-03-01T03:29:51.178Z,50.866932
2023-03-01T03:30:53.885Z,50.866879
2023-03-01T03:31:53.176Z,50.866814
2023-03-01T03:32:50.955Z,50.866745
2023-03-01T03:33:54.911Z,50.866745
2023-03-01T03:35:20.920Z,50.866753
2023-03-01T03:35:48.413Z,50.866829
2023-03-01T03:36:48.312Z,50.866814
2023-03-01T03:37:48.303Z,50.866722
2023-03-01T03:38:50.967Z,50.866760
2023-03-01T03:39:48.290Z,50.866779
2023-03-01T03:40:48.321Z,50.866798
2023-03-01T03:41:48.312Z,50.866806
2023-03-01T03:42:48.271Z,50.866802
2023-03-01T03:43:48.266Z,50.866764
2023-03-01T03:44:48.253Z,50.866760
2023-03-01T03:45:48.297Z,50.866776
2023-03-01T03:46:48.997Z,50.866772
2023-03-01T03:47:48.228Z,50.866745
2023-03-01T03:48:48.230Z,50.866795
2023-03-01T03:49:48.216Z,50.866741
2023-03-01T03:50:48.231Z,50.866764
2023-03-01T03:51:48.199Z,50.866798
2023-03-01T03:52:48.193Z,50.866714
2023-03-01T03:53:48.181Z,50.866737
2023-03-01T03:54:48.187Z,50.866741
2023-03-01T03:55:48.177Z,50.866730
2023-03-01T03:56:48.161Z,50.866753
2023-03-01T03:57:49.158Z,50.866764
2023-03-01T03:58:48.982Z,50.866760
2023-03-01T03:59:48.151Z,50.866753
2023-03-01T04:00:48.136Z,50.866779
2023-03-01T04:01:48.192Z,50.866772
2023-03-01T04:02:48.155Z,50.866741
2023-03-01T04:03:49.977Z,50.866764
2023-03-01T04:04:48.103Z,50.866741
2023-03-01T04:05:50.914Z,50.866783
2023-03-01T04:06:50.919Z,50.866756
2023-03-01T04:07:48.077Z,50.866741
2023-03-01T04:08:48.066Z,50.866722
2023-03-01T04:09:48.085Z,50.866718
2023-03-01T04:10:48.054Z,50.866745
2023-03-01T04:11:48.052Z,50.866779
2023-03-01T04:12:48.045Z,50.866783
2023-03-01T04:13:48.080Z,50.866779
2023-03-01T04:14:48.978Z,50.866707
2023-03-01T04:15:49.013Z,50.866699
2023-03-01T04:16:48.048Z,50.866734
2023-03-01T04:17:48.002Z,50.866714
2023-03-01T04:18:48.001Z,50.866695
2023-03-01T04:19:47.988Z,50.866718
2023-03-01T04:20:47.979Z,50.866695
2023-03-01T04:21:47.973Z,50.866707
2023-03-01T04:22:47.954Z,50.866680
2023-03-01T04:23:47.978Z,50.866714
2023-03-01T04:24:47.945Z,50.866703
2023-03-01T04:25:47.936Z,50.866730
2023-03-01T04:26:47.931Z,50.866699
2023-03-01T04:27:47.922Z,50.866726
2023-03-01T04:28:47.925Z,50.866673
2023-03-01T04:29:47.910Z,50.866692
2023-03-01T04:30:47.903Z,50.866711
2023-03-01T04:31:47.984Z,50.866764
2023-03-01T04:32:47.886Z,50.866730
2023-03-01T04:33:48.589Z,50.866726
2023-03-01T04:34:50.490Z,50.866680
2023-03-01T04:35:48.456Z,50.866646
2023-03-01T04:36:48.088Z,50.866692
2023-03-01T04:37:47.831Z,50.866714
2023-03-01T04:38:48.841Z,50.866726
2023-03-01T04:39:47.832Z,50.866718
2023-03-01T04:40:47.821Z,50.866726
2023-03-01T04:41:47.817Z,50.866756
2023-03-01T04:42:47.802Z,50.866768
2023-03-01T04:43:47.805Z,50.866802
2023-03-01T04:44:47.794Z,50.866810
2023-03-01T04:45:47.815Z,50.866833
2023-03-01T04:46:47.778Z,50.866718
2023-03-01T04:47:47.779Z,50.866722
2023-03-01T04:48:47.764Z,50.866787
2023-03-01T04:49:47.754Z,50.866810
2023-03-01T04:50:47.754Z,50.866871
2023-03-01T04:51:47.736Z,50.866787
2023-03-01T04:52:47.730Z,50.866760
2023-03-01T04:53:48.537Z,50.866722
2023-03-01T04:54:48.713Z,50.866783
2023-03-01T04:55:47.715Z,50.866970
2023-03-01T04:56:47.702Z,50.866951
2023-03-01T04:57:47.705Z,50.866867
2023-03-01T04:58:47.696Z,50.866791
2023-03-01T04:59:47.682Z,50.866699
2023-03-01T05:00:47.681Z,50.866772
2023-03-01T05:01:47.666Z,50.866871
2023-03-01T05:02:47.691Z,50.866840
2023-03-01T05:03:47.658Z,50.866745
2023-03-01T05:04:47.667Z,50.866745
2023-03-01T05:05:47.641Z,50.866726
2023-03-01T05:06:47.629Z,50.866711
2023-03-01T05:07:47.616Z,50.866653
2023-03-01T05:08:47.628Z,50.866718
2023-03-01T05:09:48.428Z,50.866776
2023-03-01T05:10:47.598Z,50.866806
2023-03-01T05:11:47.589Z,50.866821
2023-03-01T05:12:47.582Z,50.866707
2023-03-01T05:13:48.417Z,50.866707
2023-03-01T05:14:47.561Z,50.866703
2023-03-01T05:15:47.600Z,50.866776
2023-03-01T05:16:48.433Z,50.866806
2023-03-01T05:17:47.539Z,50.866806
2023-03-01T05:18:47.572Z,50.866787
2023-03-01T05:19:47.525Z,50.866741
2023-03-01T05:20:47.522Z,50.866737
2023-03-01T05:21:47.502Z,50.866730
2023-03-01T05:22:47.509Z,50.866730
2023-03-01T05:23:47.505Z,50.866737
2023-03-01T05:24:47.540Z,50.866795
2023-03-01T05:25:47.511Z,50.866760
2023-03-01T05:26:48.988Z,50.866779
2023-03-01T05:27:47.471Z,50.866756
2023-03-01T05:28:47.481Z,50.866722
2023-03-01T05:29:47.448Z,50.866699
2023-03-01T05:30:47.506Z,50.866856
2023-03-01T05:31:47.595Z,50.866768
2023-03-01T05:32:47.430Z,50.866947
2023-03-01T05:33:47.449Z,50.866936
2023-03-01T05:34:47.436Z,50.866989
2023-03-01T05:35:47.436Z,50.866962
2023-03-01T05:36:47.415Z,50.866989
2023-03-01T05:37:47.402Z,50.867073
2023-03-01T05:38:47.431Z,50.867031
2023-03-01T05:39:48.930Z,50.867149
2023-03-01T05:40:47.371Z,50.868382
2023-03-01T05:41:47.363Z,50.867538
2023-03-01T05:42:47.369Z,50.867214
2023-03-01T05:43:47.346Z,50.867050
2023-03-01T05:44:47.352Z,50.866924
2023-03-01T05:45:47.404Z,50.866871
2023-03-01T05:46:47.323Z,50.866829
2023-03-01T05:47:47.331Z,50.866840
2023-03-01T05:48:47.304Z,50.866840
2023-03-01T05:49:47.302Z,50.866913
2023-03-01T05:50:47.294Z,50.866879
2023-03-01T05:51:47.286Z,50.866886
2023-03-01T05:52:47.276Z,50.866901
2023-03-01T05:53:47.269Z,50.866924
2023-03-01T05:54:47.293Z,50.866840
2023-03-01T05:55:47.933Z,50.866867
2023-03-01T05:56:47.254Z,50.866821
2023-03-01T05:57:47.307Z,50.866825
2023-03-01T05:58:48.239Z,50.866829
2023-03-01T05:59:47.227Z,50.866859
2023-03-01T06:00:47.235Z,50.866825
2023-03-01T06:01:47.218Z,50.866867
2023-03-01T06:02:47.218Z,50.866753
2023-03-01T06:03:48.226Z,50.866760
2023-03-01T06:04:47.307Z,50.866611
2023-03-01T06:05:47.362Z,50.866653
2023-03-01T06:06:47.172Z,50.866753
2023-03-01T06:07:47.172Z,50.866653
2023-03-01T06:08:47.158Z,50.867004
2023-03-01T06:09:47.156Z,50.866817
2023-03-01T06:10:47.146Z,50.866577
2023-03-01T06:11:48.002Z,50.866718
2023-03-01T06:12:47.137Z,50.866707
2023-03-01T06:13:47.120Z,50.866611
2023-03-01T06:14:47.116Z,50.866676
2023-03-01T06:15:47.129Z,50.866688
2023-03-01T06:16:47.095Z,50.866730
2023-03-01T06:17:47.110Z,50.866730
2023-03-01T06:18:47.091Z,50.866676
2023-03-01T06:19:47.097Z,50.866673
2023-03-01T06:20:47.080Z,50.866699
2023-03-01T06:21:47.081Z,50.866638
2023-03-01T06:22:47.066Z,50.866650
2023-03-01T06:23:47.048Z,50.866684
2023-03-01T06:24:47.926Z,50.866600
2023-03-01T06:25:47.032Z,50.866745
2023-03-01T06:26:47.031Z,50.866745
2023-03-01T06:27:47.012Z,50.866749
2023-03-01T06:28:47.074Z,50.866703
2023-03-01T06:29:47.001Z,50.866688
2023-03-01T06:30:46.988Z,50.866653
2023-03-01T06:31:46.986Z,50.866585
2023-03-01T06:32:47.926Z,50.866631
2023-03-01T06:33:46.971Z,50.866634
2023-03-01T06:34:47.938Z,50.866623
2023-03-01T06:35:46.977Z,50.866611
2023-03-01T06:36:46.947Z,50.866589
2023-03-01T06:37:48.459Z,50.866577
2023-03-01T06:38:47.938Z,50.866562
2023-03-01T06:39:46.930Z,50.866600
2023-03-01T06:40:46.925Z,50.866673
2023-03-01T06:41:46.916Z,50.866676
2023-03-01T06:42:46.907Z,50.866673
2023-03-01T06:43:46.894Z,50.866558
2023-03-01T06:44:46.889Z,50.866566
2023-03-01T06:45:46.884Z,50.866596
2023-03-01T06:46:46.931Z,50.866768
2023-03-01T06:47:46.869Z,50.866802
2023-03-01T06:48:46.858Z,50.866802
2023-03-01T06:49:46.858Z,50.866795
2023-03-01T06:50:46.929Z,50.866791
2023-03-01T06:51:46.858Z,50.866756
2023-03-01T06:52:49.430Z,50.866737
2023-03-01T06:53:46.820Z,50.866745
2023-03-01T06:54:46.804Z,50.866768
2023-03-01T06:55:46.830Z,50.866756
2023-03-01T06:56:46.790Z,50.866734
2023-03-01T06:57:46.780Z,50.866795
2023-03-01T06:58:46.781Z,50.866806
2023-03-01T06:59:46.763Z,50.866791
2023-03-01T07:00:46.761Z,50.866840
2023-03-01T07:01:46.794Z,50.866810
2023-03-01T07:02:47.444Z,50.866783
2023-03-01T07:03:46.739Z,50.866756
2023-03-01T07:04:46.726Z,50.866791
2023-03-01T07:05:46.716Z,50.866779
2023-03-01T07:06:46.710Z,50.866737
2023-03-01T07:07:46.704Z,50.866760
2023-03-01T07:08:46.695Z,50.866779
2023-03-01T07:09:46.684Z,50.866760
2023-03-01T07:10:46.693Z,50.866779
2023-03-01T07:11:46.667Z,50.866734
2023-03-01T07:12:46.670Z,50.866714
2023-03-01T07:13:46.656Z,50.866741
2023-03-01T07:14:46.648Z,50.866711
2023-03-01T07:15:46.684Z,50.866798
2023-03-01T07:16:46.627Z,50.866795
2023-03-01T07:17:46.625Z,50.866795
2023-03-01T07:18:46.618Z,50.866806
2023-03-01T07:19:46.606Z,50.866745
2023-03-01T07:20:46.654Z,50.866718
2023-03-01T07:21:46.607Z,50.866783
2023-03-01T07:22:46.585Z,50.866795
2023-03-01T07:23:46.575Z,50.866787
2023-03-01T07:24:46.586Z,50.866791
2023-03-01T07:25:46.556Z,50.866806
2023-03-01T07:26:46.556Z,50.866829
2023-03-01T07:27:46.543Z,50.866901
2023-03-01T07:28:47.432Z,50.866829
2023-03-01T07:29:46.536Z,50.866821
2023-03-01T07:30:46.537Z,50.866661
2023-03-01T07:31:46.527Z,50.866791
2023-03-01T07:32:46.653Z,50.866779
2023-03-01T07:33:47.496Z,50.866718
2023-03-01T07:34:46.510Z,50.866741
2023-03-01T07:35:46.503Z,50.866810
2023-03-01T07:36:46.472Z,50.866814
2023-03-01T07:37:46.485Z,50.866802
2023-03-01T07:38:46.462Z,50.866776
2023-03-01T07:39:46.441Z,50.866810
2023-03-01T07:40:46.435Z,50.866791
2023-03-01T07:41:46.442Z,50.866787
2023-03-01T07:42:46.465Z,50.866745
2023-03-01T07:43:46.418Z,50.866787
2023-03-01T07:44:46.403Z,50.866772
2023-03-01T07:45:46.437Z,50.866814
2023-03-01T07:46:46.389Z,50.866802
2023-03-01T07:47:46.379Z,50.866779
2023-03-01T07:48:46.939Z,50.866779
2023-03-01T07:49:46.365Z,50.866783
2023-03-01T07:50:46.394Z,50.866753
2023-03-01T07:51:46.339Z,50.866776
2023-03-01T07:52:47.338Z,50.866764
2023-03-01T07:53:47.337Z,50.866772
2023-03-01T07:54:46.327Z,50.866741
2023-03-01T07:55:46.328Z,50.866768
2023-03-01T07:56:46.304Z,50.866768
2023-03-01T07:57:46.302Z,50.866787
2023-03-01T07:58:46.285Z,50.866768
2023-03-01T07:59:46.277Z,50.866787
2023-03-01T08:00:46.275Z,50.866753
2023-03-01T08:01:46.303Z,50.866787
2023-03-01T08:02:46.275Z,50.866791
2023-03-01T08:03:46.281Z,50.866802
2023-03-01T08:04:46.242Z,50.866814
2023-03-01T08:05:46.234Z,50.866730
2023-03-01T08:06:46.229Z,50.866711
2023-03-01T08:07:46.241Z,50.866718
2023-03-01T08:08:46.211Z,50.866791
2023-03-01T08:09:46.277Z,50.866764
2023-03-01T08:10:46.190Z,50.866745
2023-03-01T08:11:49.033Z,50.866814
2023-03-01T08:12:48.026Z,50.866867
2023-03-01T08:13:46.170Z,50.866905
2023-03-01T08:14:48.021Z,50.866779
2023-03-01T08:15:46.147Z,50.866814
2023-03-01T08:16:46.187Z,50.866817
2023-03-01T08:17:46.144Z,50.866772
2023-03-01T08:18:46.132Z,50.866768
2023-03-01T08:19:46.132Z,50.866776
2023-03-01T08:20:46.124Z,50.866768
2023-03-01T08:21:46.116Z,50.866772
2023-03-01T08:22:46.113Z,50.866741
2023-03-01T08:23:46.087Z,50.866768
2023-03-01T08:24:46.077Z,50.866756
2023-03-01T08:25:46.076Z,50.866764
2023-03-01T08:26:46.064Z,50.866783
2023-03-01T08:27:46.078Z,50.866795
2023-03-01T08:28:46.050Z,50.866806
2023-03-01T08:29:46.038Z,50.866787
2023-03-01T08:30:47.059Z,50.866776
2023-03-01T08:31:46.118Z,50.866764
2023-03-01T08:32:46.208Z,50.866760
2023-03-01T08:33:46.055Z,50.866756
2023-03-01T08:34:46.003Z,50.866737
2023-03-01T08:35:46.019Z,50.866734
2023-03-01T08:36:45.991Z,50.866745
2023-03-01T08:37:45.974Z,50.866776
2023-03-01T08:38:45.992Z,50.866741
2023-03-01T08:39:46.100Z,50.866722
2023-03-01T08:40:45.975Z,50.866726
2023-03-01T08:41:48.232Z,50.866734
2023-03-01T08:42:46.961Z,50.866753
2023-03-01T08:43:45.931Z,50.866753
2023-03-01T08:44:46.947Z,50.866768
2023-03-01T08:45:46.940Z,50.866760
2023-03-01T08:46:45.898Z,50.866795
2023-03-01T08:47:45.903Z,50.866791
2023-03-01T08:48:45.883Z,50.866760
2023-03-01T08:49:45.885Z,50.866791
2023-03-01T08:50:45.879Z,50.866776
2023-03-01T08:51:45.865Z,50.866703
2023-03-01T08:52:45.851Z,50.866772
2023-03-01T08:53:45.845Z,50.866776
2023-03-01T08:54:45.842Z,50.866749
2023-03-01T08:55:45.841Z,50.866772
2023-03-01T08:56:45.820Z,50.866783
2023-03-01T08:57:46.452Z,50.866756
2023-03-01T08:58:45.803Z,50.866768
2023-03-01T08:59:45.788Z,50.866764
2023-03-01T09:00:45.804Z,50.866795
2023-03-01T09:01:45.781Z,50.866783
2023-03-01T09:02:45.770Z,50.866814
2023-03-01T09:03:45.781Z,50.866798
2023-03-01T09:04:45.788Z,50.866772
2023-03-01T09:05:45.757Z,50.866753
2023-03-01T09:06:45.752Z,50.866768
2023-03-01T09:07:45.751Z,50.866764
2023-03-01T09:08:45.731Z,50.866772
2023-03-01T09:09:46.732Z,50.866730
2023-03-01T09:10:45.725Z,50.866730
2023-03-01T09:11:45.715Z,50.866776
2023-03-01T09:12:46.450Z,50.866817
2023-03-01T09:13:45.713Z,50.866795
2023-03-01T09:14:45.695Z,50.866756
2023-03-01T09:15:45.681Z,50.866734
2023-03-01T09:16:45.706Z,50.866726
2023-03-01T09:17:45.652Z,50.866745
2023-03-01T09:18:45.698Z,50.866802
2023-03-01T09:19:45.680Z,50.866692
2023-03-01T09:20:45.640Z,50.866722
2023-03-01T09:21:45.621Z,50.866680
2023-03-01T09:22:46.632Z,50.866776
2023-03-01T09:23:45.623Z,50.866726
2023-03-01T09:24:45.614Z,50.866619
2023-03-01T09:25:45.601Z,50.866631
2023-03-01T09:26:45.597Z,50.866787
2023-03-01T09:27:45.603Z,50.866760
2023-03-01T09:28:45.593Z,50.866852
2023-03-01T09:29:45.577Z,50.866871
2023-03-01T09:30:45.593Z,50.866749
2023-03-01T09:31:45.558Z,50.866638
2023-03-01T09:32:45.539Z,50.866592
2023-03-01T09:33:45.560Z,50.866547
2023-03-01T09:34:46.550Z,50.866825
2023-03-01T09:35:45.552Z,50.867100
2023-03-01T09:36:45.514Z,50.867168
2023-03-01T09:37:46.054Z,50.867069
2023-03-01T09:38:45.500Z,50.867107
2023-03-01T09:39:45.504Z,50.867199
2023-03-01T09:40:45.497Z,50.867008
2023-03-01T09:41:45.474Z,50.866737
2023-03-01T09:42:45.471Z,50.866741
2023-03-01T09:43:45.458Z,50.866718
2023-03-01T09:44:45.458Z,50.866798
2023-03-01T09:45:45.513Z,50.866852
2023-03-01T09:46:45.450Z,50.866634
2023-03-01T09:47:45.433Z,50.866638
2023-03-01T09:48:45.424Z,50.867023
2023-03-01T09:49:45.413Z,50.866791
2023-03-01T09:50:45.429Z,50.866737
2023-03-01T09:51:46.060Z,50.866516
2023-03-01T09:52:45.401Z,50.866619
2023-03-01T09:53:45.397Z,50.866661
2023-03-01T09:54:45.961Z,50.866795
2023-03-01T09:55:45.384Z,50.866718
2023-03-01T09:56:45.365Z,50.866779
2023-03-01T09:57:46.365Z,50.866665
2023-03-01T09:58:45.355Z,50.866768
2023-03-01T09:59:45.353Z,50.866821
2023-03-01T10:00:46.969Z,50.866848
2023-03-01T10:01:45.344Z,50.866791
2023-03-01T10:02:45.326Z,50.866764
2023-03-01T10:03:45.482Z,50.866753
2023-03-01T10:04:48.138Z,50.866776
2023-03-01T10:05:45.307Z,50.866795
2023-03-01T10:06:45.296Z,50.866821
2023-03-01T10:07:45.276Z,50.866776
2023-03-01T10:08:45.277Z,50.866825
2023-03-01T10:09:45.281Z,50.866798
2023-03-01T10:10:45.285Z,50.866814
2023-03-01T10:11:45.255Z,50.866814
2023-03-01T10:12:45.244Z,50.866806
2023-03-01T10:13:45.262Z,50.866802
2023-03-01T10:14:45.230Z,50.866810
2023-03-01T10:15:45.240Z,50.866798
2023-03-01T10:16:45.213Z,50.866806
2023-03-01T10:17:45.199Z,50.866795
2023-03-01T10:18:45.211Z,50.866810
2023-03-01T10:19:45.195Z,50.866814
2023-03-01T10:20:45.175Z,50.866825
2023-03-01T10:21:45.167Z,50.866833
2023-03-01T10:22:45.162Z,50.866798
2023-03-01T10:23:45.156Z,50.866802
2023-03-01T10:24:45.154Z,50.866802
2023-03-01T10:25:47.055Z,50.866844
2023-03-01T10:26:45.159Z,50.866875
2023-03-01T10:27:45.121Z,50.866779
2023-03-01T10:28:45.114Z,50.866798
2023-03-01T10:29:45.122Z,50.866810
2023-03-01T10:30:45.159Z,50.866718
2023-03-01T10:31:45.087Z,50.866764
2023-03-01T10:32:45.085Z,50.866787
2023-03-01T10:33:45.072Z,50.866795
2023-03-01T10:34:45.077Z,50.866833
2023-03-01T10:35:45.092Z,50.866787
2023-03-01T10:36:45.074Z,50.866829
2023-03-01T10:37:45.059Z,50.866863
2023-03-01T10:38:45.036Z,50.866821
2023-03-01T10:39:45.548Z,50.866810
2023-03-01T10:40:45.019Z,50.866779
2023-03-01T10:41:45.012Z,50.866768
2023-03-01T10:42:45.010Z,50.866852
2023-03-01T10:43:44.992Z,50.866787
2023-03-01T10:44:44.986Z,50.866791
2023-03-01T10:45:45.977Z,50.866798
2023-03-01T10:46:45.086Z,50.866779
2023-03-01T10:47:44.967Z,50.866806
2023-03-01T10:48:44.962Z,50.866791
2023-03-01T10:49:44.967Z,50.866821
2023-03-01T10:50:44.949Z,50.866802
2023-03-01T10:51:44.936Z,50.866791
2023-03-01T10:52:44.926Z,50.866840
2023-03-01T10:53:45.556Z,50.866783
2023-03-01T10:54:44.959Z,50.866783
2023-03-01T10:55:44.906Z,50.866848
2023-03-01T10:56:44.888Z,50.866806
2023-03-01T10:57:44.893Z,50.866760
2023-03-01T10:58:44.883Z,50.866779
2023-03-01T10:59:44.864Z,50.866802
2023-03-01T11:00:44.859Z,50.866795
2023-03-01T11:01:44.860Z,50.866798
2023-03-01T11:02:44.859Z,50.866798
2023-03-01T11:03:44.840Z,50.866871
2023-03-01T11:04:44.864Z,50.866852
2023-03-01T11:05:44.821Z,50.866875
2023-03-01T11:06:44.829Z,50.866837
2023-03-01T11:07:44.803Z,50.866829
2023-03-01T11:08:46.554Z,50.866879
2023-03-01T11:09:47.577Z,50.866886
2023-03-01T11:10:44.802Z,50.866783
2023-03-01T11:11:44.793Z,50.866745
2023-03-01T11:12:44.814Z,50.866737
2023-03-01T11:13:45.577Z,50.866730
2023-03-01T11:14:44.961Z,50.866779
2023-03-01T11:15:51.649Z,50.866730
2023-03-01T11:16:45.733Z,50.866741
2023-03-01T11:17:53.903Z,50.866825
2023-03-01T11:18:48.476Z,50.866783
2023-03-01T11:20:00.922Z,50.866543
2023-03-01T11:58:36.438Z,50.866631
2023-03-01T11:59:35.454Z,50.866611
2023-03-01T12:00:35.446Z,50.866638
2023-03-01T12:01:38.533Z,50.866653
2023-03-01T12:02:36.485Z,50.866634
2023-03-01T12:03:35.410Z,50.866676
2023-03-01T12:04:35.502Z,50.866680
2023-03-01T12:05:35.405Z,50.866680
2023-03-01T12:06:35.385Z,50.866669
2023-03-01T12:07:35.375Z,50.866669
2023-03-01T12:08:35.374Z,50.866665
2023-03-01T12:09:35.373Z,50.866673
2023-03-01T12:10:35.349Z,50.866657
2023-03-01T12:11:35.341Z,50.866676
2023-03-01T12:12:35.357Z,50.866665
2023-03-01T12:13:37.094Z,50.866684
2023-03-01T12:14:35.338Z,50.866676
2023-03-01T12:15:35.319Z,50.866642
2023-03-01T12:16:39.248Z,50.866661